createdAt,value
2023-05-20T00:04:40.930Z,15.40
2023-05-20T00:09:46.874Z,15.40
2023-05-20T00:14:51.066Z,15.30
2023-05-20T00:19:55.333Z,15.30
2023-05-20T00:25:00.924Z,15.20
2023-05-20T00:30:05.688Z,15.20
2023-05-20T00:35:11.637Z,15.20
2023-05-20T00:40:17.288Z,15.20
2023-05-20T00:45:21.313Z,15.20
2023-05-20T00:50:25.578Z,15.20
2023-05-20T00:55:32.398Z,15.10
2023-05-20T01:00:36.659Z,15.10
2023-05-20T01:05:42.376Z,15.00
2023-05-20T01:10:54.896Z,15.00
2023-05-20T01:16:00.965Z,14.90
2023-05-20T01:21:06.604Z,14.90
2023-05-20T01:26:13.929Z,14.90
2023-05-20T01:31:23.525Z,14.80
2023-05-20T01:36:28.264Z,14.80
2023-05-20T01:41:34.730Z,14.70
2023-05-20T01:46:38.951Z,14.70
2023-05-20T01:51:43.184Z,14.60
2023-05-20T01:56:48.887Z,14.60
2023-05-20T02:01:53.092Z,14.50
2023-05-20T02:06:57.191Z,14.50
2023-05-20T02:12:02.752Z,14.40
2023-05-20T02:17:07.029Z,14.40
2023-05-20T02:22:11.148Z,14.40
2023-05-20T02:27:16.957Z,14.30
2023-05-20T02:32:21.594Z,14.30
2023-05-20T02:37:26.120Z,14.30
2023-05-20T02:42:32.835Z,14.30
2023-05-20T02:47:37.013Z,14.20
2023-05-20T02:52:42.906Z,14.20
2023-05-20T02:57:48.544Z,14.10
2023-05-20T03:02:52.702Z,14.10
2023-05-20T03:07:57.024Z,14.10
2023-05-20T03:13:02.567Z,14.10
2023-05-20T03:18:08.502Z,14.00
2023-05-20T03:23:13.856Z,14.00
2023-05-20T03:28:19.284Z,14.00
2023-05-20T03:33:26.298Z,14.00
2023-05-20T03:38:31.747Z,13.90
2023-05-20T03:43:37.831Z,13.90
2023-05-20T03:48:42.887Z,13.90
2023-05-20T03:53:47.005Z,13.90
2023-05-20T03:58:52.629Z,13.80
2023-05-20T04:03:57.162Z,13.80
2023-05-20T04:09:05.026Z,13.80
2023-05-20T04:14:11.303Z,13.80
2023-05-20T04:19:16.161Z,13.80
2023-05-20T04:24:25.122Z,13.80
2023-05-20T04:29:34.382Z,13.70
2023-05-20T04:34:38.963Z,13.70
2023-05-20T04:39:49.892Z,13.70
2023-05-20T04:44:55.937Z,13.70
2023-05-20T04:50:00.268Z,13.70
2023-05-20T04:55:04.980Z,13.80
2023-05-20T05:00:13.412Z,13.80
2023-05-20T05:05:18.136Z,13.80
2023-05-20T05:10:23.454Z,13.80
2023-05-20T05:15:29.561Z,13.70
2023-05-20T05:20:33.918Z,13.80
2023-05-20T05:25:38.020Z,13.80
2023-05-20T05:30:43.534Z,13.80
2023-05-20T05:35:47.705Z,13.80
2023-05-20T05:40:53.115Z,13.80
2023-05-20T05:45:58.721Z,13.90
2023-05-20T05:51:06.545Z,13.90
2023-05-20T05:56:11.693Z,13.90
2023-05-20T06:01:17.324Z,14.00
2023-05-20T06:06:21.574Z,14.00
2023-05-20T06:11:26.510Z,14.00
2023-05-20T06:16:32.044Z,14.10
2023-05-20T06:21:37.536Z,14.10
2023-05-20T06:26:41.919Z,14.20
2023-05-20T06:31:47.430Z,14.20
2023-05-20T06:36:51.570Z,14.30
2023-05-20T06:41:55.750Z,14.30
2023-05-20T06:47:07.427Z,14.40
2023-05-20T06:52:12.845Z,14.50
2023-05-20T06:57:16.900Z,14.50
2023-05-20T07:02:23.196Z,14.60
2023-05-20T07:07:27.537Z,14.70
2023-05-20T07:12:31.709Z,14.80
2023-05-20T07:17:37.383Z,14.90
2023-05-20T07:22:42.333Z,15.00
2023-05-20T07:27:51.890Z,15.10
2023-05-20T07:32:57.484Z,15.20
2023-05-20T07:38:02.005Z,15.30
2023-05-20T07:43:06.332Z,15.50
2023-05-20T07:48:13.004Z,15.60
2023-05-20T07:53:17.725Z,15.70
2023-05-20T07:58:22.355Z,15.80
2023-05-20T08:03:29.058Z,16.00
2023-05-20T08:08:45.648Z,16.10
2023-05-20T08:13:56.550Z,16.20
2023-05-20T08:19:05.385Z,16.40
2023-05-20T08:24:09.751Z,16.50
2023-05-20T08:29:14.489Z,16.60
2023-05-20T08:34:20.052Z,16.70
2023-05-20T08:39:24.273Z,16.90
2023-05-20T08:44:30.730Z,17.00
2023-05-20T08:49:36.542Z,17.10
2023-05-20T08:54:46.523Z,17.30
2023-05-20T08:59:51.226Z,17.40
2023-05-20T09:04:56.966Z,17.50
2023-05-20T09:10:01.098Z,17.70
2023-05-20T09:15:05.978Z,17.80
2023-05-20T09:20:14.148Z,18.00
2023-05-20T09:25:23.775Z,18.30
2023-05-20T09:30:28.562Z,18.50
2023-05-20T09:35:38.195Z,18.70
2023-05-20T09:40:45.338Z,19.00
2023-05-20T09:45:49.624Z,19.20
2023-05-20T09:50:56.763Z,19.50
2023-05-20T09:56:01.277Z,19.80
2023-05-20T10:01:05.680Z,20.20
2023-05-20T10:06:30.285Z,20.60
2023-05-20T10:11:44.507Z,20.90
2023-05-20T10:16:58.301Z,21.00
2023-05-20T10:22:05.427Z,20.90
2023-05-20T10:27:12.974Z,20.80
2023-05-20T10:32:26.822Z,20.90
2023-05-20T10:37:35.250Z,21.10
2023-05-20T10:42:39.680Z,21.10
2023-05-20T10:47:55.963Z,21.30
2023-05-20T10:53:15.691Z,21.60
2023-05-20T10:58:26.679Z,21.70
2023-05-20T11:03:31.961Z,21.90
2023-05-20T11:08:37.560Z,22.20
2023-05-20T11:13:41.772Z,22.30
2023-05-20T11:18:45.991Z,22.30
2023-05-20T11:23:53.514Z,22.40
2023-05-20T11:28:59.446Z,22.50
2023-05-20T11:34:05.337Z,22.70
2023-05-20T11:39:12.302Z,22.80
2023-05-20T11:44:16.704Z,22.70
2023-05-20T11:49:20.780Z,22.70
2023-05-20T11:54:27.212Z,22.80
2023-05-20T11:59:31.492Z,22.80
2023-05-20T12:04:37.017Z,22.70
2023-05-20T12:09:42.418Z,22.60
2023-05-20T12:14:46.473Z,22.50
2023-05-20T12:19:50.640Z,22.50
2023-05-20T12:24:56.147Z,22.70
2023-05-20T12:30:00.306Z,22.80
2023-05-20T12:35:04.910Z,22.60
2023-05-20T12:40:12.808Z,22.50
2023-05-20T12:45:16.919Z,22.60
2023-05-20T12:50:21.097Z,22.60
2023-05-20T12:55:26.694Z,22.60
2023-05-20T13:00:31.400Z,22.50
2023-05-20T13:05:35.635Z,22.50
2023-05-20T13:10:41.345Z,22.50
2023-05-20T13:15:45.559Z,22.70
2023-05-20T13:20:49.777Z,22.80
2023-05-20T13:25:55.399Z,22.70
2023-05-20T13:30:59.765Z,22.60
2023-05-20T13:36:04.200Z,22.80
2023-05-20T13:41:09.633Z,22.90
2023-05-20T13:46:13.940Z,22.90
2023-05-20T13:51:18.363Z,22.90
2023-05-20T13:56:23.817Z,22.80
2023-05-20T14:01:28.779Z,22.90
2023-05-20T14:06:33.060Z,22.80
2023-05-20T14:11:38.642Z,22.70
2023-05-20T14:16:42.761Z,22.70
2023-05-20T14:21:46.965Z,22.70
2023-05-20T14:26:52.638Z,22.70
2023-05-20T14:31:57.001Z,22.60
2023-05-20T14:37:05.608Z,22.50
2023-05-20T14:42:11.257Z,22.40
2023-05-20T14:47:19.123Z,22.40
2023-05-20T14:52:23.322Z,22.20
2023-05-20T14:57:28.915Z,22.10
2023-05-20T15:02:33.120Z,22.10
2023-05-20T15:07:37.384Z,22.00
2023-05-20T15:12:43.074Z,21.90
2023-05-20T15:17:47.430Z,21.80
2023-05-20T15:22:51.597Z,21.80
2023-05-20T15:27:57.088Z,21.70
2023-05-20T15:33:01.639Z,21.60
2023-05-20T15:38:05.879Z,21.60
2023-05-20T15:43:11.629Z,21.50
2023-05-20T15:48:15.998Z,21.50
2023-05-20T15:53:20.079Z,21.50
2023-05-20T15:58:25.600Z,21.40
2023-05-20T16:03:30.586Z,21.40
2023-05-20T16:08:36.340Z,21.30
2023-05-20T16:13:41.887Z,21.20
2023-05-20T16:18:46.003Z,21.20
2023-05-20T16:23:50.532Z,21.10
2023-05-20T16:28:56.057Z,21.10
2023-05-20T16:34:00.132Z,21.10
2023-05-20T16:39:06.508Z,21.00
2023-05-20T16:44:12.269Z,20.90
2023-05-20T16:49:16.694Z,20.90
2023-05-20T16:54:21.366Z,20.80
2023-05-20T16:59:29.004Z,20.80
2023-05-20T17:04:33.099Z,20.70
2023-05-20T17:09:37.689Z,20.70
2023-05-20T17:14:43.126Z,20.60
2023-05-20T17:19:47.187Z,20.60
2023-05-20T17:24:51.269Z,20.60
2023-05-20T17:29:58.611Z,20.50
2023-05-20T17:35:05.818Z,20.50
2023-05-20T17:40:12.285Z,20.50
2023-05-20T17:45:18.007Z,20.50
2023-05-20T17:50:22.150Z,20.40
2023-05-20T17:55:26.661Z,20.40
2023-05-20T18:00:34.657Z,20.30
2023-05-20T18:05:39.286Z,20.30
2023-05-20T18:10:43.401Z,20.30
2023-05-20T18:15:49.261Z,20.20
2023-05-20T18:20:53.603Z,20.20
2023-05-20T18:25:58.016Z,20.20
2023-05-20T18:31:03.568Z,20.10
2023-05-20T18:36:08.482Z,20.10
2023-05-20T18:41:12.539Z,20.10
2023-05-20T18:46:18.792Z,20.00
2023-05-20T18:51:22.928Z,20.00
2023-05-20T18:56:27.465Z,20.00
2023-05-20T19:01:33.886Z,20.00
2023-05-20T19:06:38.203Z,19.90
2023-05-20T19:11:42.242Z,19.80
2023-05-20T19:16:47.751Z,19.70
2023-05-20T19:21:52.442Z,19.70
2023-05-20T19:26:56.663Z,19.60
2023-05-20T19:32:02.227Z,19.50
2023-05-20T19:37:06.761Z,19.50
2023-05-20T19:42:10.827Z,19.40
2023-05-20T19:47:16.564Z,19.30
2023-05-20T19:52:21.245Z,19.30
2023-05-20T19:57:25.891Z,19.20
2023-05-20T20:02:31.857Z,19.20
2023-05-20T20:07:35.982Z,19.10
2023-05-20T20:12:40.088Z,19.00
2023-05-20T20:17:51.984Z,18.90
2023-05-20T20:22:56.471Z,18.90
2023-05-20T20:28:00.527Z,18.80
2023-05-20T20:33:07.395Z,18.70
2023-05-20T20:38:11.808Z,18.70
2023-05-20T20:43:20.845Z,18.60
2023-05-20T20:48:27.724Z,18.60
2023-05-20T20:53:31.876Z,18.50
2023-05-20T20:58:37.723Z,18.40
2023-05-20T21:03:44.703Z,18.40
2023-05-20T21:08:48.976Z,18.30
2023-05-20T21:13:53.089Z,18.20
2023-05-20T21:18:58.545Z,18.20
2023-05-20T21:24:03.023Z,18.10
2023-05-20T21:29:07.499Z,18.00
2023-05-20T21:34:14.181Z,18.00
2023-05-20T21:39:18.292Z,17.90
2023-05-20T21:44:25.144Z,17.90
2023-05-20T21:49:30.443Z,17.80
2023-05-20T21:54:34.510Z,17.80
2023-05-20T21:59:38.639Z,17.70
2023-05-20T22:04:44.094Z,17.70
2023-05-20T22:09:48.170Z,17.60
2023-05-20T22:14:52.313Z,17.60
2023-05-20T22:19:58.584Z,17.60
2023-05-20T22:25:02.776Z,17.50
2023-05-20T22:30:10.516Z,17.40
2023-05-20T22:35:16.305Z,17.40
2023-05-20T22:40:20.400Z,17.40
2023-05-20T22:45:24.604Z,17.30
2023-05-20T22:50:30.093Z,17.20
2023-05-20T22:55:34.443Z,17.20
2023-05-20T23:00:38.875Z,17.20
2023-05-20T23:05:44.303Z,17.10
2023-05-20T23:10:48.524Z,17.10
2023-05-20T23:15:52.640Z,17.00
2023-05-20T23:20:58.167Z,17.00
2023-05-20T23:26:02.624Z,16.90
2023-05-20T23:31:06.805Z,16.90
2023-05-20T23:36:12.544Z,16.90
2023-05-20T23:41:16.718Z,16.80
2023-05-20T23:46:20.911Z,16.80
2023-05-20T23:51:28.029Z,16.70
2023-05-20T23:56:32.135Z,16.70
